createdAt,value
2023-03-28T00:02:03.841Z,102271.94
2023-03-28T00:07:05.701Z,102274.47
2023-03-28T00:12:09.622Z,102278.72
2023-03-28T00:17:13.605Z,102292.38
2023-03-28T00:22:17.490Z,102291.13
2023-03-28T00:27:19.243Z,102293.16
2023-03-28T00:32:23.613Z,102304.28
2023-03-28T00:37:27.773Z,102303.63
2023-03-28T00:42:30.766Z,102298.69
2023-03-28T00:47:37.694Z,102307.59
2023-03-28T00:52:49.808Z,102305.66
2023-03-28T00:57:54.712Z,102303.22
2023-03-28T01:02:58.370Z,102304.91
2023-03-28T01:08:29.472Z,102331.56
2023-03-28T01:13:35.244Z,102354.84
2023-03-28T01:18:41.387Z,102312.97
2023-03-28T01:24:12.646Z,102303.09
2023-03-28T01:29:24.909Z,102311.69
2023-03-28T01:34:43.605Z,102322.88
2023-03-28T01:40:22.214Z,102315.56
2023-03-28T01:45:39.531Z,102328.97
2023-03-28T01:51:01.318Z,102346.81
2023-03-28T01:56:18.759Z,102339.47
2023-03-28T02:01:24.712Z,102330.94
2023-03-28T02:06:28.320Z,102331.69
2023-03-28T02:11:33.413Z,102328.41
2023-03-28T02:17:01.915Z,102339.59
2023-03-28T02:22:44.653Z,102335.78
2023-03-28T02:28:25.725Z,102340.78
2023-03-28T02:33:52.372Z,102331.69
2023-03-28T02:39:00.396Z,102338.16
2023-03-28T02:44:13.458Z,102335.88
2023-03-28T02:49:50.284Z,102341.06
2023-03-28T02:55:17.658Z,102345.03
2023-03-28T03:00:36.464Z,102350.91
2023-03-28T03:05:38.165Z,102349.13
2023-03-28T03:10:45.497Z,102350.03
2023-03-28T03:15:47.648Z,102337.53
2023-03-28T03:20:57.577Z,102337.09
2023-03-28T03:26:02.145Z,102331.41
2023-03-28T03:31:11.055Z,102335.94
2023-03-28T03:36:31.986Z,102336.97
2023-03-28T03:41:39.776Z,102365.81
2023-03-28T03:46:41.514Z,102374.25
2023-03-28T03:51:45.631Z,102357.72
2023-03-28T03:56:53.301Z,102356.88
2023-03-28T04:01:57.706Z,102364.25
2023-03-28T04:06:59.551Z,102368.41
2023-03-28T04:12:02.669Z,102360.59
2023-03-28T04:17:06.752Z,102371.09
2023-03-28T04:22:12.762Z,102366.69
2023-03-28T04:27:20.143Z,102372.66
2023-03-28T04:32:26.087Z,102382.63
2023-03-28T04:37:41.494Z,102407.47
2023-03-28T04:42:45.951Z,102413.69
2023-03-28T04:47:53.793Z,102408.44
2023-03-28T04:52:57.666Z,102408.22
2023-03-28T04:57:59.682Z,102417.06
2023-03-28T05:03:05.031Z,102421.22
2023-03-28T05:08:20.853Z,102420.56
2023-03-28T05:13:23.084Z,102425.53
2023-03-28T05:18:39.396Z,102428.97
2023-03-28T05:23:51.386Z,102442.69
2023-03-28T05:28:58.768Z,102430.09
2023-03-28T05:34:02.859Z,102445.03
2023-03-28T05:39:15.837Z,102451.94
2023-03-28T05:44:18.887Z,102449.22
2023-03-28T05:49:49.629Z,102456.28
2023-03-28T05:54:52.303Z,102458.34
2023-03-28T05:59:55.974Z,102466.06
2023-03-28T06:05:00.238Z,102462.91
2023-03-28T06:10:04.279Z,102467.50
2023-03-28T06:15:08.100Z,102472.94
2023-03-28T06:20:16.044Z,102470.19
2023-03-28T06:25:21.956Z,102468.16
2023-03-28T06:30:26.403Z,102469.59
2023-03-28T06:35:28.911Z,102469.69
2023-03-28T06:40:31.121Z,102472.75
2023-03-28T06:45:39.213Z,102481.09
2023-03-28T06:50:50.330Z,102487.59
2023-03-28T06:55:54.942Z,102496.34
2023-03-28T07:00:59.811Z,102492.47
2023-03-28T07:06:06.540Z,102496.56
2023-03-28T07:11:08.629Z,102494.41
2023-03-28T07:16:13.570Z,102489.13
2023-03-28T07:21:19.347Z,102495.78
2023-03-28T07:26:22.279Z,102500.31
2023-03-28T07:31:26.165Z,102501.34
2023-03-28T07:36:28.900Z,102504.66
2023-03-28T07:41:37.300Z,102505.34
2023-03-28T07:46:40.256Z,102513.72
2023-03-28T07:51:42.097Z,102514.53
2023-03-28T07:56:49.764Z,102516.88
2023-03-28T08:01:59.541Z,102523.88
2023-03-28T08:07:04.104Z,102511.59
2023-03-28T08:12:11.318Z,102530.00
2023-03-28T08:17:14.170Z,102531.34
2023-03-28T08:22:17.592Z,102539.78
2023-03-28T08:27:28.946Z,102546.78
2023-03-28T08:32:39.040Z,102548.84
2023-03-28T08:37:40.826Z,102543.56
2023-03-28T08:42:51.403Z,102545.03
2023-03-28T08:48:08.240Z,102542.19
2023-03-28T08:53:23.126Z,102552.47
2023-03-28T08:58:26.579Z,102545.66
2023-03-28T09:03:31.709Z,102550.31
2023-03-28T09:08:47.472Z,102549.97
2023-03-28T09:14:20.853Z,102554.06
2023-03-28T09:19:44.823Z,102536.78
2023-03-28T09:25:20.357Z,102539.13
2023-03-28T09:30:36.526Z,102538.28
2023-03-28T09:35:40.059Z,102553.03
2023-03-28T09:40:46.999Z,102538.28
2023-03-28T09:46:03.103Z,102528.22
2023-03-28T09:51:07.522Z,102542.50
2023-03-28T09:56:26.051Z,102553.97
2023-03-28T10:01:42.884Z,102542.50
2023-03-28T10:07:32.379Z,102540.81
2023-03-28T10:12:49.108Z,102543.59
2023-03-28T10:17:53.572Z,102545.13
2023-03-28T10:23:04.563Z,102532.28
2023-03-28T10:28:15.175Z,102525.59
2023-03-28T10:33:23.687Z,102526.88
2023-03-28T10:38:49.408Z,102526.16
2023-03-28T10:43:54.487Z,102538.06
2023-03-28T10:49:21.578Z,102535.03
2023-03-28T10:55:03.553Z,102539.19
2023-03-28T11:00:28.014Z,102541.84
2023-03-28T11:05:42.947Z,102527.16
2023-03-28T11:10:53.651Z,102524.28
2023-03-28T11:16:30.193Z,102517.25
2023-03-28T11:22:28.128Z,102511.81
2023-03-28T11:27:39.315Z,102519.38
2023-03-28T11:33:01.337Z,102519.53
2023-03-28T11:38:23.793Z,102515.13
2023-03-28T11:43:35.017Z,102527.41
2023-03-28T11:48:43.632Z,102514.00
2023-03-28T11:54:24.347Z,102510.09
2023-03-28T11:59:49.501Z,102510.28
2023-03-28T12:04:58.831Z,102505.53
2023-03-28T12:10:27.245Z,102497.00
2023-03-28T12:15:51.093Z,102494.53
2023-03-28T12:21:07.751Z,102481.19
2023-03-28T12:26:47.389Z,102481.16
2023-03-28T12:31:57.403Z,102474.03
2023-03-28T12:37:19.033Z,102462.28
2023-03-28T12:42:23.465Z,102456.63
2023-03-28T12:47:38.927Z,102455.16
2023-03-28T12:52:43.864Z,102454.13
2023-03-28T12:57:56.298Z,102455.13
2023-03-28T13:03:53.194Z,102443.97
2023-03-28T13:09:16.977Z,102438.63
2023-03-28T13:14:37.379Z,102432.66
2023-03-28T13:19:42.174Z,102428.97
2023-03-28T13:24:44.087Z,102418.44
2023-03-28T13:29:53.089Z,102406.81
2023-03-28T13:34:59.950Z,102402.19
2023-03-28T13:40:01.721Z,102391.28
2023-03-28T13:45:06.660Z,102393.50
2023-03-28T13:50:29.807Z,102378.22
2023-03-28T13:55:32.223Z,102367.03
2023-03-28T14:00:34.263Z,102364.19
2023-03-28T14:05:46.717Z,102364.03
2023-03-28T14:10:51.040Z,102358.44
2023-03-28T14:15:53.680Z,102351.81
2023-03-28T14:21:01.817Z,102349.84
2023-03-28T14:26:12.405Z,102325.38
2023-03-28T14:31:38.588Z,102318.94
2023-03-28T14:37:00.958Z,102298.63
2023-03-28T14:42:15.812Z,102292.34
2023-03-28T14:47:26.939Z,102283.31
2023-03-28T14:52:31.524Z,102275.44
2023-03-28T14:57:37.698Z,102269.31
2023-03-28T15:02:42.770Z,102255.06
2023-03-28T15:07:47.265Z,102254.06
2023-03-28T15:12:59.583Z,102242.91
2023-03-28T15:18:06.748Z,102241.06
2023-03-28T15:23:15.580Z,102238.78
2023-03-28T15:28:20.001Z,102224.34
2023-03-28T15:33:29.228Z,102224.00
2023-03-28T15:38:41.105Z,102218.00
2023-03-28T15:43:55.546Z,102214.38
2023-03-28T15:49:00.842Z,102204.97
2023-03-28T15:54:03.411Z,102217.50
2023-03-28T15:59:18.490Z,102215.69
2023-03-28T16:04:29.176Z,102210.63
2023-03-28T16:09:32.027Z,102199.50
2023-03-28T16:14:35.804Z,102191.25
2023-03-28T16:20:16.377Z,102194.88
2023-03-28T16:25:18.489Z,102189.31
2023-03-28T16:30:31.547Z,102185.34
2023-03-28T16:35:35.975Z,102174.22
2023-03-28T16:40:43.055Z,102170.13
2023-03-28T16:45:49.574Z,102166.19
2023-03-28T16:50:58.623Z,102150.03
2023-03-28T16:56:03.956Z,102145.63
2023-03-28T17:01:19.545Z,102144.63
2023-03-28T17:06:22.708Z,102146.25
2023-03-28T17:11:30.823Z,102122.66
2023-03-28T17:16:32.987Z,102126.59
2023-03-28T17:21:35.166Z,102115.50
2023-03-28T17:26:37.286Z,102105.97
2023-03-28T17:31:43.886Z,102106.69
2023-03-28T17:36:46.128Z,102104.84
2023-03-28T17:41:48.576Z,102102.78
2023-03-28T17:46:50.552Z,102101.16
2023-03-28T17:51:56.845Z,102092.16
2023-03-28T17:56:59.628Z,102083.13
2023-03-28T18:02:03.009Z,102081.69
2023-03-28T18:07:16.225Z,102079.31
2023-03-28T18:12:22.358Z,102081.53
2023-03-28T18:17:26.504Z,102077.16
2023-03-28T18:22:29.193Z,102079.22
2023-03-28T18:27:33.424Z,102082.16
2023-03-28T18:32:38.031Z,102075.28
2023-03-28T18:37:42.254Z,102081.84
2023-03-28T18:42:44.646Z,102091.31
2023-03-28T18:47:49.147Z,102074.09
2023-03-28T18:52:53.526Z,102063.72
2023-03-28T18:57:56.038Z,102072.66
2023-03-28T19:02:58.018Z,102075.81
2023-03-28T19:07:59.998Z,102088.66
2023-03-28T19:13:01.916Z,102081.56
2023-03-28T19:18:05.624Z,102083.50
2023-03-28T19:23:10.333Z,102079.00
2023-03-28T19:28:12.724Z,102088.38
2023-03-28T19:33:14.920Z,102072.84
2023-03-28T19:38:17.285Z,102065.00
2023-03-28T19:43:24.009Z,102063.78
2023-03-28T19:48:31.233Z,102054.59
2023-03-28T19:53:33.439Z,102047.97
2023-03-28T19:58:45.444Z,102041.22
2023-03-28T20:03:52.585Z,102035.91
2023-03-28T20:08:56.224Z,102042.03
2023-03-28T20:14:03.362Z,102029.59
2023-03-28T20:19:14.292Z,102034.06
2023-03-28T20:24:18.448Z,102034.53
2023-03-28T20:29:20.754Z,102026.16
2023-03-28T20:34:27.746Z,102019.03
2023-03-28T20:39:35.198Z,102018.75
2023-03-28T20:44:39.940Z,102022.44
2023-03-28T20:49:46.103Z,102014.56
2023-03-28T20:54:49.969Z,102012.59
2023-03-28T20:59:55.302Z,102003.53
2023-03-28T21:04:59.712Z,101991.22
2023-03-28T21:10:02.092Z,101985.19
2023-03-28T21:15:06.757Z,101988.81
2023-03-28T21:20:13.728Z,101974.59
2023-03-28T21:25:15.974Z,101971.84
2023-03-28T21:30:20.155Z,101966.63
2023-03-28T21:35:24.273Z,101962.19
2023-03-28T21:40:30.358Z,101955.31
2023-03-28T21:45:35.118Z,101951.19
2023-03-28T21:50:38.776Z,101942.53
2023-03-28T21:55:41.057Z,101941.41
2023-03-28T22:00:42.831Z,101934.13
2023-03-28T22:05:46.761Z,101922.94
2023-03-28T22:10:55.341Z,101919.66
2023-03-28T22:15:59.836Z,101918.19
2023-03-28T22:21:07.283Z,101913.13
2023-03-28T22:26:11.075Z,101903.28
2023-03-28T22:31:17.650Z,101902.94
2023-03-28T22:36:21.960Z,101893.19
2023-03-28T22:41:32.038Z,101895.00
2023-03-28T22:46:40.723Z,101889.69
2023-03-28T22:51:48.886Z,101891.59
2023-03-28T22:56:50.642Z,101885.56
2023-03-28T23:01:55.281Z,101876.66
2023-03-28T23:07:01.727Z,101871.88
2023-03-28T23:12:04.091Z,101866.34
2023-03-28T23:17:05.753Z,101859.03
2023-03-28T23:22:10.277Z,101842.81
2023-03-28T23:27:26.648Z,101837.16
2023-03-28T23:32:31.012Z,101833.53
2023-03-28T23:37:34.527Z,101826.44
2023-03-28T23:42:38.752Z,101827.03
2023-03-28T23:47:44.034Z,101821.63
2023-03-28T23:52:45.826Z,101812.75
2023-03-28T23:57:49.958Z,101810.78
